createdAt,value
2017-12-04T00:00:09.745Z,23.40
2017-12-04T00:02:37.188Z,22.60
2017-12-04T00:05:05.403Z,22.67
2017-12-04T00:07:32.843Z,22.20
2017-12-04T00:10:01.056Z,23.97
2017-12-04T00:12:28.506Z,22.67
2017-12-04T00:14:56.707Z,22.23
2017-12-04T00:17:24.175Z,23.67
2017-12-04T00:19:51.612Z,24.87
2017-12-04T00:22:19.822Z,20.57
2017-12-04T00:24:47.272Z,25.20
2017-12-04T00:27:15.534Z,21.90
2017-12-04T00:29:42.927Z,22.53
2017-12-04T00:32:11.127Z,22.10
2017-12-04T00:34:38.576Z,19.97
2017-12-04T00:37:06.783Z,22.93
2017-12-04T00:39:34.228Z,23.27
2017-12-04T00:42:02.436Z,23.17
2017-12-04T00:44:29.880Z,21.97
2017-12-04T00:46:57.322Z,22.17
2017-12-04T00:49:24.773Z,24.60
2017-12-04T00:51:52.217Z,21.10
2017-12-04T00:54:19.663Z,23.10
2017-12-04T00:56:47.871Z,20.77
2017-12-04T00:59:15.323Z,23.47
2017-12-04T01:01:43.531Z,20.63
2017-12-04T01:04:10.980Z,20.23
2017-12-04T01:06:39.182Z,19.60
2017-12-04T01:09:06.632Z,20.40
2017-12-04T01:11:34.839Z,21.83
2017-12-04T01:14:02.288Z,22.70
2017-12-04T01:16:30.496Z,20.10
2017-12-04T01:18:57.976Z,18.37
2017-12-04T01:21:25.412Z,19.77
2017-12-04T01:23:53.616Z,19.27
2017-12-04T01:26:21.063Z,19.73
2017-12-04T01:28:49.272Z,19.13
2017-12-04T01:31:16.719Z,21.07
2017-12-04T01:33:44.924Z,22.30
2017-12-04T01:36:12.380Z,19.57
2017-12-04T01:38:39.821Z,20.40
2017-12-04T01:41:07.267Z,18.87
2017-12-04T01:43:34.712Z,19.20
2017-12-04T01:46:02.164Z,19.20
2017-12-04T01:48:29.608Z,18.50
2017-12-04T01:50:57.812Z,19.20
2017-12-04T01:53:25.251Z,19.50
2017-12-04T01:55:52.699Z,20.40
2017-12-04T01:58:20.139Z,18.20
2017-12-04T02:00:47.592Z,18.30
2017-12-04T02:03:15.031Z,19.37
2017-12-04T02:05:43.246Z,17.67
2017-12-04T02:08:10.675Z,21.47
2017-12-04T02:10:38.120Z,19.13
2017-12-04T02:13:05.571Z,19.60
2017-12-04T02:15:33.008Z,18.50
2017-12-04T02:18:00.446Z,18.40
2017-12-04T02:20:28.664Z,21.10
2017-12-04T02:22:56.097Z,18.90
2017-12-04T02:25:24.304Z,20.10
2017-12-04T02:27:51.752Z,20.67
2017-12-04T02:30:19.196Z,18.00
2017-12-04T02:32:46.649Z,17.43
2017-12-04T02:35:14.083Z,20.20
2017-12-04T02:37:41.532Z,19.33
2017-12-04T02:40:09.740Z,18.60
2017-12-04T02:42:37.191Z,20.20
2017-12-04T02:45:05.400Z,16.83
2017-12-04T02:47:32.871Z,16.83
2017-12-04T02:50:00.318Z,17.50
2017-12-04T02:52:28.537Z,18.00
2017-12-04T02:54:55.975Z,19.40
2017-12-04T02:57:24.188Z,19.30
2017-12-04T02:59:51.632Z,18.73
2017-12-04T03:02:19.072Z,21.60
2017-12-04T03:04:46.528Z,19.40
2017-12-04T03:07:13.976Z,18.03
2017-12-04T03:09:41.416Z,20.73
2017-12-04T03:12:08.872Z,19.67
2017-12-04T03:14:36.315Z,18.87
2017-12-04T03:17:04.536Z,17.83
2017-12-04T03:19:31.975Z,19.40
2017-12-04T03:22:00.196Z,21.03
2017-12-04T03:24:27.648Z,19.57
2017-12-04T03:26:55.083Z,20.40
2017-12-04T03:29:22.528Z,19.27
2017-12-04T03:31:49.968Z,19.23
2017-12-04T03:34:17.416Z,16.40
2017-12-04T03:36:45.620Z,16.17
2017-12-04T03:39:13.072Z,16.80
2017-12-04T03:41:40.511Z,17.37
2017-12-04T03:44:07.959Z,18.10
2017-12-04T03:46:35.407Z,17.77
2017-12-04T03:49:02.857Z,17.13
2017-12-04T03:51:30.310Z,14.90
2017-12-04T03:53:58.515Z,17.20
2017-12-04T03:56:25.959Z,17.67
2017-12-04T03:58:54.177Z,16.43
2017-12-04T04:01:21.619Z,20.67
2017-12-04T04:03:49.831Z,17.30
2017-12-04T04:06:17.271Z,20.37
2017-12-04T04:08:45.492Z,16.73
2017-12-04T04:11:12.928Z,16.60
2017-12-04T04:13:41.144Z,16.53
2017-12-04T04:16:08.580Z,15.57
2017-12-04T04:18:36.795Z,19.97
2017-12-04T04:21:04.240Z,19.10
2017-12-04T04:23:31.695Z,26.13
2017-12-04T04:25:59.904Z,37.60
2017-12-04T04:28:27.340Z,20.60
2017-12-04T04:30:55.560Z,33.10
2017-12-04T04:33:22.999Z,30.03
2017-12-04T04:35:51.217Z,18.30
2017-12-04T04:38:18.656Z,18.30
2017-12-04T04:40:46.868Z,16.97
2017-12-04T04:43:14.311Z,15.87
2017-12-04T04:45:42.528Z,19.43
2017-12-04T04:48:09.968Z,16.23
2017-12-04T04:50:38.185Z,18.70
2017-12-04T04:53:05.628Z,17.07
2017-12-04T04:55:33.852Z,17.80
2017-12-04T04:58:01.299Z,18.97
2017-12-04T05:00:28.740Z,19.43
2017-12-04T05:02:56.955Z,18.23
2017-12-04T05:05:24.404Z,17.07
2017-12-04T05:07:52.608Z,19.73
2017-12-04T05:10:20.060Z,17.30
2017-12-04T05:12:48.272Z,20.70
2017-12-04T05:15:15.720Z,17.20
2017-12-04T05:17:43.164Z,18.73
2017-12-04T05:20:10.615Z,18.90
2017-12-04T05:22:38.064Z,18.47
2017-12-04T05:25:05.512Z,17.47
2017-12-04T05:27:32.951Z,17.30
2017-12-04T05:30:01.196Z,17.80
2017-12-04T05:32:28.640Z,17.07
2017-12-04T05:34:56.088Z,17.90
2017-12-04T05:37:23.540Z,17.07
2017-12-04T05:39:51.747Z,16.50
2017-12-04T05:42:19.200Z,17.77
2017-12-04T05:44:47.415Z,14.83
2017-12-04T05:47:14.900Z,15.30
2017-12-04T05:49:42.340Z,16.77
2017-12-04T05:52:09.788Z,16.50
2017-12-04T05:54:37.995Z,16.17
2017-12-04T05:57:05.448Z,15.53
2017-12-04T05:59:32.912Z,15.53
2017-12-04T06:02:01.124Z,14.33
2017-12-04T06:04:28.568Z,17.90
2017-12-04T06:06:56.781Z,15.23
2017-12-04T06:09:24.224Z,18.20
2017-12-04T06:11:51.672Z,17.00
2017-12-04T06:14:19.121Z,15.53
2017-12-04T06:16:46.568Z,17.20
2017-12-04T06:19:14.011Z,17.50
2017-12-04T06:21:41.468Z,17.27
2017-12-04T06:24:09.675Z,18.00
2017-12-04T06:26:37.170Z,16.30
2017-12-04T06:29:04.596Z,16.70
2017-12-04T06:31:32.063Z,16.87
2017-12-04T06:33:59.500Z,17.23
2017-12-04T06:36:26.936Z,16.63
2017-12-04T06:38:54.392Z,18.00
2017-12-04T06:41:21.832Z,17.00
2017-12-04T06:43:50.091Z,17.23
2017-12-04T06:46:17.540Z,20.07
2017-12-04T06:48:45.023Z,18.50
2017-12-04T06:51:12.456Z,17.53
2017-12-04T06:53:39.904Z,18.43
2017-12-04T06:56:07.355Z,16.97
2017-12-04T06:58:34.800Z,19.37
2017-12-04T07:01:02.248Z,16.30
2017-12-04T07:03:29.701Z,18.20
2017-12-04T07:05:57.140Z,16.27
2017-12-04T07:08:25.351Z,16.20
2017-12-04T07:10:52.809Z,17.10
2017-12-04T07:13:20.252Z,17.57
2017-12-04T07:15:48.461Z,17.60
2017-12-04T07:18:15.900Z,19.10
2017-12-04T07:20:43.340Z,18.90
2017-12-04T07:23:10.781Z,17.07
2017-12-04T07:25:38.211Z,19.50
2017-12-04T07:28:06.425Z,20.37
2017-12-04T07:30:33.863Z,19.30
2017-12-04T07:33:02.099Z,16.40
2017-12-04T07:35:29.536Z,15.97
2017-12-04T07:37:56.976Z,17.83
2017-12-04T07:40:24.420Z,17.53
2017-12-04T07:42:51.861Z,18.50
2017-12-04T07:45:19.307Z,17.17
2017-12-04T07:47:46.744Z,19.40
2017-12-04T07:50:14.185Z,16.30
2017-12-04T07:52:41.621Z,16.70
2017-12-04T07:55:09.836Z,18.17
2017-12-04T07:57:37.275Z,17.70
2017-12-04T08:00:04.720Z,19.80
2017-12-04T08:02:32.933Z,17.43
2017-12-04T08:05:00.385Z,18.07
2017-12-04T08:07:28.594Z,19.07
2017-12-04T08:09:56.040Z,18.33
2017-12-04T08:12:24.245Z,16.60
2017-12-04T08:14:51.680Z,17.87
2017-12-04T08:17:19.896Z,17.27
2017-12-04T08:19:47.343Z,18.67
2017-12-04T08:22:15.552Z,17.87
2017-12-04T08:24:43.001Z,18.03
2017-12-04T08:27:11.210Z,18.57
2017-12-04T08:29:38.657Z,17.30
2017-12-04T08:32:06.869Z,17.77
2017-12-04T08:34:34.308Z,18.23
2017-12-04T08:37:02.515Z,18.93
2017-12-04T08:39:29.988Z,18.53
2017-12-04T08:41:57.427Z,17.60
2017-12-04T08:44:25.641Z,17.07
2017-12-04T08:46:53.084Z,17.73
2017-12-04T08:49:21.302Z,19.03
2017-12-04T08:51:48.744Z,19.50
2017-12-04T08:54:16.949Z,16.80
2017-12-04T08:56:44.392Z,18.23
2017-12-04T08:59:12.604Z,17.93
2017-12-04T09:01:40.055Z,18.60
2017-12-04T09:04:08.255Z,18.13
2017-12-04T09:06:35.703Z,17.93
2017-12-04T09:09:03.917Z,15.10
2017-12-04T09:11:31.368Z,18.20
2017-12-04T09:13:58.810Z,18.13
2017-12-04T09:16:26.248Z,17.73
2017-12-04T09:18:53.688Z,18.67
2017-12-04T09:21:21.956Z,16.40
2017-12-04T09:23:50.162Z,18.00
2017-12-04T09:26:17.612Z,17.67
2017-12-04T09:28:45.820Z,17.70
2017-12-04T09:31:13.311Z,17.00
2017-12-04T09:33:40.736Z,17.40
2017-12-04T09:36:08.192Z,17.00
2017-12-04T09:38:36.400Z,18.67
2017-12-04T09:41:03.843Z,18.20
2017-12-04T09:43:32.052Z,17.07
2017-12-04T09:45:59.490Z,17.30
2017-12-04T09:48:26.932Z,19.33
2017-12-04T09:50:54.373Z,15.40
2017-12-04T09:53:21.829Z,16.60
2017-12-04T09:55:49.268Z,15.73
2017-12-04T09:58:16.712Z,14.83
2017-12-04T10:00:44.152Z,15.63
2017-12-04T10:03:11.604Z,14.83
2017-12-04T10:05:39.044Z,13.80
2017-12-04T10:08:07.260Z,14.53
2017-12-04T10:10:34.704Z,16.67
2017-12-04T10:13:02.924Z,13.83
2017-12-04T10:15:30.364Z,14.57
2017-12-04T10:17:58.590Z,15.70
2017-12-04T10:20:26.020Z,15.20
2017-12-04T10:22:54.236Z,14.60
2017-12-04T10:25:21.681Z,14.20
2017-12-04T10:27:49.135Z,14.63
2017-12-04T10:30:17.332Z,14.20
2017-12-04T10:32:45.548Z,14.20
2017-12-04T10:35:12.989Z,14.83
2017-12-04T10:37:40.436Z,12.37
2017-12-04T10:40:08.636Z,15.57
2017-12-04T10:42:36.856Z,12.10
2017-12-04T10:45:04.322Z,14.10
2017-12-04T10:47:31.756Z,13.00
2017-12-04T10:49:59.962Z,12.73
2017-12-04T10:52:27.396Z,12.27
2017-12-04T10:54:54.839Z,13.10
2017-12-04T10:57:22.312Z,12.73
2017-12-04T10:59:49.752Z,13.70
2017-12-04T11:02:17.197Z,13.97
2017-12-04T11:04:44.656Z,12.70
2017-12-04T11:07:12.865Z,12.27
2017-12-04T11:09:40.316Z,14.77
2017-12-04T11:12:07.755Z,15.60
2017-12-04T11:14:35.214Z,13.53
2017-12-04T11:17:02.649Z,13.07
2017-12-04T11:19:30.106Z,12.13
2017-12-04T11:21:57.544Z,13.00
2017-12-04T11:24:25.761Z,11.90
2017-12-04T11:26:53.196Z,12.73
2017-12-04T11:29:21.410Z,11.10
2017-12-04T11:31:48.848Z,12.07
2017-12-04T11:34:17.064Z,10.83
2017-12-04T11:36:44.504Z,12.60
2017-12-04T11:39:12.720Z,11.47
2017-12-04T11:41:40.220Z,12.10
2017-12-04T11:44:07.672Z,13.17
2017-12-04T11:46:35.115Z,12.67
2017-12-04T11:49:03.316Z,12.30
2017-12-04T11:51:30.764Z,11.80
2017-12-04T11:53:58.965Z,12.20
2017-12-04T11:56:26.412Z,12.60
2017-12-04T11:58:54.624Z,13.00
2017-12-04T12:01:22.068Z,13.93
2017-12-04T12:03:50.283Z,12.87
2017-12-04T12:06:17.715Z,13.63
2017-12-04T12:08:45.925Z,14.20
2017-12-04T12:11:13.368Z,12.80
2017-12-04T12:13:41.580Z,14.23
2017-12-04T12:16:09.029Z,13.20
2017-12-04T12:18:37.240Z,14.17
2017-12-04T12:21:04.684Z,13.30
2017-12-04T12:23:32.897Z,15.17
2017-12-04T12:26:00.335Z,13.73
2017-12-04T12:28:28.553Z,13.20
2017-12-04T12:30:55.984Z,15.47
2017-12-04T12:33:24.192Z,14.70
2017-12-04T12:35:51.639Z,15.00
2017-12-04T12:38:19.852Z,17.37
2017-12-04T12:40:47.296Z,15.63
2017-12-04T12:43:15.512Z,16.70
2017-12-04T12:45:42.956Z,13.43
2017-12-04T12:48:11.164Z,16.30
2017-12-04T12:50:38.629Z,14.67
2017-12-04T12:53:06.068Z,14.13
2017-12-04T12:55:33.503Z,16.57
2017-12-04T12:58:01.005Z,15.23
2017-12-04T13:00:28.445Z,13.27
2017-12-04T13:02:55.888Z,15.20
2017-12-04T13:05:23.327Z,15.57
2017-12-04T13:07:51.543Z,16.20
2017-12-04T13:10:18.987Z,14.47
2017-12-04T13:12:47.196Z,13.30
2017-12-04T13:15:14.641Z,15.07
2017-12-04T13:17:42.852Z,15.10
2017-12-04T13:20:10.288Z,14.60
2017-12-04T13:22:38.517Z,13.80
2017-12-04T13:25:05.939Z,15.20
2017-12-04T13:27:33.397Z,14.87
2017-12-04T13:30:00.824Z,14.03
2017-12-04T13:32:40.016Z,14.43
2017-12-04T13:35:20.179Z,13.67
2017-12-04T13:37:48.392Z,15.33
2017-12-04T13:40:15.827Z,15.53
2017-12-04T13:42:43.268Z,15.33
2017-12-04T13:45:10.708Z,14.53
2017-12-04T13:47:38.156Z,16.20
2017-12-04T13:50:05.600Z,16.40
2017-12-04T13:52:33.036Z,14.80
2017-12-04T13:55:00.483Z,14.60
2017-12-04T13:57:27.920Z,14.10
2017-12-04T13:59:56.136Z,14.33
2017-12-04T14:02:23.573Z,17.43
2017-12-04T14:04:51.785Z,14.50
2017-12-04T14:07:19.228Z,14.40
2017-12-04T14:09:47.436Z,14.77
2017-12-04T14:12:14.874Z,14.70
2017-12-04T14:14:42.316Z,16.57
2017-12-04T14:17:09.761Z,15.00
2017-12-04T14:19:37.205Z,17.20
2017-12-04T14:22:04.636Z,17.07
2017-12-04T14:24:32.084Z,16.80
2017-12-04T14:26:59.511Z,15.57
2017-12-04T14:29:26.967Z,15.00
2017-12-04T14:31:55.176Z,15.20
2017-12-04T14:34:22.624Z,14.30
2017-12-04T14:36:50.076Z,16.37
2017-12-04T14:39:18.284Z,13.90
2017-12-04T14:41:45.731Z,13.77
2017-12-04T14:44:13.176Z,16.37
2017-12-04T14:46:40.616Z,15.13
2017-12-04T14:49:08.080Z,16.80
2017-12-04T14:51:35.576Z,18.57
2017-12-04T14:54:03.008Z,18.17
2017-12-04T14:56:30.452Z,15.47
2017-12-04T14:58:58.664Z,16.83
2017-12-04T15:01:26.108Z,16.30
2017-12-04T15:03:54.309Z,16.57
2017-12-04T15:06:21.764Z,16.47
2017-12-04T15:08:49.964Z,17.20
2017-12-04T15:11:17.422Z,15.70
2017-12-04T15:13:45.617Z,18.10
2017-12-04T15:16:13.064Z,18.30
2017-12-04T15:18:41.270Z,17.00
2017-12-04T15:21:09.476Z,16.20
2017-12-04T15:23:36.908Z,17.17
2017-12-04T15:26:05.116Z,17.40
2017-12-04T15:28:32.559Z,15.63
2017-12-04T15:31:00.767Z,14.57
2017-12-04T15:33:28.226Z,17.27
2017-12-04T15:35:56.436Z,16.00
2017-12-04T15:38:23.872Z,15.00
2017-12-04T15:40:52.084Z,16.47
2017-12-04T15:43:19.517Z,16.37
2017-12-04T15:45:46.965Z,15.93
2017-12-04T15:48:14.402Z,17.10
2017-12-04T15:50:41.868Z,14.73
2017-12-04T15:53:09.796Z,14.77
2017-12-04T15:55:37.263Z,17.60
2017-12-04T15:58:04.697Z,16.60
2017-12-04T16:00:32.136Z,19.83
2017-12-04T16:02:59.576Z,24.63
2017-12-04T16:05:27.848Z,23.97
2017-12-04T16:07:55.283Z,22.60
2017-12-04T16:10:22.720Z,19.60
2017-12-04T16:12:50.168Z,21.00
2017-12-04T16:15:18.371Z,20.00
2017-12-04T16:17:45.817Z,18.23
2017-12-04T16:20:13.251Z,16.27
2017-12-04T16:22:40.696Z,16.43
2017-12-04T16:25:08.140Z,17.77
2017-12-04T16:27:36.345Z,17.53
2017-12-04T16:30:03.784Z,16.87
2017-12-04T16:32:31.996Z,14.90
2017-12-04T16:34:59.432Z,13.80
2017-12-04T16:37:27.648Z,15.13
2017-12-04T16:39:55.092Z,16.10
2017-12-04T16:42:22.532Z,16.07
2017-12-04T16:44:49.981Z,14.90
2017-12-04T16:47:17.431Z,16.87
2017-12-04T16:49:44.868Z,16.80
2017-12-04T16:52:13.081Z,17.73
2017-12-04T16:54:40.519Z,17.50
2017-12-04T16:57:08.724Z,19.47
2017-12-04T16:59:36.172Z,16.17
2017-12-04T17:02:04.391Z,16.20
2017-12-04T17:04:31.831Z,17.33
2017-12-04T17:07:00.040Z,16.73
2017-12-04T18:25:40.704Z,18.47
2017-12-04T18:28:08.140Z,19.90
2017-12-04T18:30:36.349Z,17.17
2017-12-04T18:33:03.789Z,18.17
2017-12-04T18:35:31.996Z,16.57
2017-12-04T18:37:59.432Z,18.03
2017-12-04T18:40:27.640Z,16.60
2017-12-04T18:42:55.072Z,15.93
2017-12-04T18:45:22.528Z,16.40
2017-12-04T18:47:49.964Z,16.67
2017-12-04T18:50:17.412Z,14.73
2017-12-04T18:52:44.848Z,15.57
2017-12-04T18:55:12.312Z,15.27
2017-12-04T18:57:39.748Z,14.03
2017-12-04T19:00:07.188Z,14.27
2017-12-04T19:02:34.628Z,14.73
2017-12-04T19:05:02.068Z,15.67
2017-12-04T19:07:29.512Z,17.47
2017-12-04T19:09:56.944Z,15.50
2017-12-04T19:12:25.156Z,17.07
2017-12-04T19:14:52.591Z,16.80
2017-12-04T19:17:20.823Z,16.93
2017-12-04T19:19:48.255Z,19.70
2017-12-04T19:22:16.472Z,18.10
2017-12-04T19:24:43.912Z,18.70
2017-12-04T19:27:12.113Z,17.27
2017-12-04T19:29:39.556Z,16.40
2017-12-04T19:32:07.760Z,16.53
2017-12-04T19:34:35.208Z,15.67
2017-12-04T19:37:03.408Z,15.97
2017-12-04T19:39:31.612Z,19.30
2017-12-04T19:41:59.063Z,18.83
2017-12-04T19:44:27.276Z,18.17
2017-12-04T19:46:54.712Z,20.27
2017-12-04T19:49:22.916Z,16.90
2017-12-04T19:51:50.364Z,16.00
2017-12-04T19:54:18.571Z,16.60
2017-12-04T19:56:46.050Z,17.50
2017-12-04T19:59:13.483Z,17.50
2017-12-04T20:01:41.688Z,15.73
2017-12-04T20:04:09.179Z,19.20
2017-12-04T20:06:36.604Z,17.83
2017-12-04T20:09:04.836Z,20.90
2017-12-04T20:11:32.276Z,23.60
2017-12-04T20:13:59.717Z,26.80
2017-12-04T20:16:27.198Z,19.50
2017-12-04T20:18:54.660Z,17.33
2017-12-04T20:21:22.868Z,20.07
2017-12-04T20:23:50.350Z,17.90
2017-12-04T20:26:17.784Z,18.07
2017-12-04T20:28:45.981Z,16.03
2017-12-04T20:31:14.196Z,16.80
2017-12-04T20:33:41.627Z,16.20
2017-12-04T20:36:09.851Z,15.07
2017-12-04T20:38:37.280Z,15.43
2017-12-04T20:41:05.517Z,14.73
2017-12-04T20:43:32.952Z,16.03
2017-12-04T20:46:01.213Z,14.97
2017-12-04T20:48:28.656Z,17.50
2017-12-04T20:50:56.087Z,17.03
2017-12-04T20:53:23.540Z,17.63
2017-12-04T20:55:51.740Z,23.10
2017-12-04T20:58:19.193Z,16.17
2017-12-04T21:00:47.406Z,17.17
2017-12-04T21:03:14.840Z,16.63
2017-12-04T21:05:43.040Z,19.87
2017-12-04T21:08:22.368Z,18.47
2017-12-04T21:11:02.484Z,19.00
2017-12-04T21:16:47.047Z,17.90
2017-12-04T21:19:15.268Z,19.00
2017-12-04T21:21:42.710Z,19.07
2017-12-04T21:24:10.147Z,16.30
2017-12-04T21:26:37.594Z,18.03
2017-12-04T21:29:05.801Z,16.17
2017-12-04T21:31:33.240Z,21.17
2017-12-04T21:34:00.684Z,18.47
2017-12-04T21:36:28.124Z,19.20
2017-12-04T21:38:56.335Z,16.63
2017-12-04T21:41:23.769Z,15.80
2017-12-04T21:43:51.985Z,18.40
2017-12-04T21:46:19.424Z,18.90
2017-12-04T21:48:46.859Z,17.10
2017-12-04T21:51:14.297Z,18.67
2017-12-04T21:53:41.747Z,15.67
2017-12-04T21:56:09.943Z,16.90
2017-12-04T21:58:37.391Z,15.07
2017-12-04T22:01:05.592Z,17.40
2017-12-04T22:03:33.091Z,16.90
2017-12-04T22:06:00.527Z,16.50
2017-12-04T22:08:27.960Z,15.60
2017-12-04T22:10:55.404Z,16.13
2017-12-04T22:13:22.845Z,17.00
2017-12-04T22:15:50.293Z,19.20
2017-12-04T22:18:18.537Z,17.57
2017-12-04T22:20:45.984Z,15.87
2017-12-04T22:23:13.415Z,14.83
2017-12-04T22:25:40.865Z,13.90
2017-12-04T22:28:09.068Z,14.67
2017-12-04T22:30:37.279Z,15.10
2017-12-04T22:33:04.712Z,18.03
2017-12-04T22:35:32.928Z,16.43
2017-12-04T22:38:00.367Z,17.40
2017-12-04T22:40:28.579Z,16.53
2017-12-04T22:42:56.015Z,16.37
2017-12-04T22:45:24.229Z,16.97
2017-12-04T22:47:51.668Z,18.37
2017-12-04T22:50:19.116Z,14.70
2017-12-04T22:52:46.555Z,13.90
2017-12-04T22:55:14.007Z,18.53
2017-12-04T22:57:41.439Z,19.10
2017-12-04T23:00:08.883Z,15.70
2017-12-04T23:02:36.316Z,13.70
2017-12-04T23:05:03.783Z,15.80
2017-12-04T23:07:31.215Z,16.20
2017-12-04T23:09:59.423Z,14.87
2017-12-04T23:12:26.875Z,18.80
2017-12-04T23:14:55.079Z,14.50
2017-12-04T23:17:22.527Z,14.13
2017-12-04T23:19:50.727Z,11.40
2017-12-04T23:22:18.180Z,12.97
2017-12-04T23:24:46.383Z,11.90
2017-12-04T23:27:13.836Z,12.90
2017-12-04T23:29:42.036Z,12.40
2017-12-04T23:32:09.489Z,14.10
2017-12-04T23:34:37.687Z,12.83
2017-12-04T23:37:05.900Z,11.80
2017-12-04T23:39:33.335Z,12.43
2017-12-04T23:42:01.552Z,12.87
2017-12-04T23:44:28.992Z,12.47
2017-12-04T23:46:57.204Z,10.80
2017-12-04T23:49:24.654Z,12.50
2017-12-04T23:51:52.876Z,11.30
2017-12-04T23:54:21.637Z,16.53
2017-12-04T23:56:49.843Z,11.60
2017-12-04T23:59:17.296Z,12.50
